createdAt,value
2023-04-22T00:00:14.319Z,10.77
2023-04-22T00:01:15.743Z,10.76
2023-04-22T00:02:15.799Z,10.73
2023-04-22T00:03:15.860Z,10.70
2023-04-22T00:04:15.971Z,10.65
2023-04-22T00:05:18.558Z,10.62
2023-04-22T00:06:15.185Z,10.62
2023-04-22T00:07:15.779Z,10.59
2023-04-22T00:08:14.191Z,10.59
2023-04-22T00:09:15.634Z,10.56
2023-04-22T00:10:15.627Z,10.53
2023-04-22T00:11:15.603Z,10.55
2023-04-22T00:12:15.602Z,10.47
2023-04-22T00:13:15.590Z,10.43
2023-04-22T00:14:15.570Z,10.46
2023-04-22T00:15:15.558Z,10.47
2023-04-22T00:16:14.173Z,10.47
2023-04-22T00:17:15.551Z,10.44
2023-04-22T00:18:15.534Z,10.42
2023-04-22T00:19:15.508Z,10.43
2023-04-22T00:20:15.519Z,10.43
2023-04-22T00:21:15.470Z,10.42
2023-04-22T00:22:15.472Z,10.34
2023-04-22T00:23:15.466Z,10.34
2023-04-22T00:24:15.437Z,10.26
2023-04-22T00:25:15.424Z,10.30
2023-04-22T00:26:15.400Z,10.26
2023-04-22T00:27:15.404Z,10.30
2023-04-22T00:28:15.378Z,10.28
2023-04-22T00:29:15.375Z,10.26
2023-04-22T00:30:15.362Z,10.28
2023-04-22T00:31:15.396Z,10.25
2023-04-22T00:32:14.119Z,10.24
2023-04-22T00:33:15.311Z,10.25
2023-04-22T00:34:15.288Z,10.25
2023-04-22T00:35:15.294Z,10.25
2023-04-22T00:36:15.272Z,10.22
2023-04-22T00:37:15.273Z,10.17
2023-04-22T00:38:15.226Z,10.19
2023-04-22T00:39:15.275Z,10.18
2023-04-22T00:40:15.214Z,10.15
2023-04-22T00:41:15.199Z,10.12
2023-04-22T00:42:15.195Z,10.07
2023-04-22T00:43:15.172Z,10.10
2023-04-22T00:44:15.146Z,10.04
2023-04-22T00:45:15.139Z,10.06
2023-04-22T00:46:15.161Z,10.06
2023-04-22T00:47:15.160Z,10.09
2023-04-22T00:48:13.744Z,10.15
2023-04-22T00:49:14.123Z,10.14
2023-04-22T00:50:15.098Z,10.10
2023-04-22T00:51:15.068Z,10.15
2023-04-22T00:52:15.060Z,10.14
2023-04-22T00:53:15.062Z,10.15
2023-04-22T00:54:15.016Z,10.17
2023-04-22T00:55:14.237Z,10.15
2023-04-22T00:56:14.989Z,10.07
2023-04-22T00:57:14.983Z,10.12
2023-04-22T00:58:14.951Z,10.15
2023-04-22T00:59:14.958Z,10.18
2023-04-22T01:00:14.928Z,10.14
2023-04-22T01:01:14.983Z,10.19
2023-04-22T01:02:14.999Z,10.21
2023-04-22T01:03:14.985Z,10.22
2023-04-22T01:04:15.008Z,10.15
2023-04-22T01:05:14.879Z,10.14
2023-04-22T01:06:14.849Z,10.18
2023-04-22T01:07:14.838Z,10.18
2023-04-22T01:08:14.845Z,10.15
2023-04-22T01:09:14.821Z,10.18
2023-04-22T01:10:14.809Z,10.21
2023-04-22T01:11:14.800Z,10.24
2023-04-22T01:12:14.777Z,10.19
2023-04-22T01:13:14.758Z,10.18
2023-04-22T01:14:14.742Z,10.19
2023-04-22T01:15:14.729Z,10.18
2023-04-22T01:16:14.740Z,10.15
2023-04-22T01:17:14.719Z,10.19
2023-04-22T01:18:14.701Z,10.18
2023-04-22T01:19:14.686Z,10.18
2023-04-22T01:20:13.204Z,10.24
2023-04-22T01:21:14.654Z,10.28
2023-04-22T01:22:14.654Z,10.25
2023-04-22T01:23:14.615Z,10.26
2023-04-22T01:24:14.641Z,10.30
2023-04-22T01:25:14.599Z,10.32
2023-04-22T01:26:14.594Z,10.32
2023-04-22T01:27:14.589Z,10.25
2023-04-22T01:28:13.104Z,10.21
2023-04-22T01:29:14.535Z,10.19
2023-04-22T01:30:14.525Z,10.22
2023-04-22T01:31:14.517Z,10.22
2023-04-22T01:32:14.543Z,10.24
2023-04-22T01:33:14.509Z,10.21
2023-04-22T01:34:14.487Z,10.18
2023-04-22T01:35:14.454Z,10.22
2023-04-22T01:36:13.316Z,10.24
2023-04-22T01:37:14.442Z,10.25
2023-04-22T01:38:14.448Z,10.30
2023-04-22T01:39:13.900Z,10.36
2023-04-22T01:40:13.474Z,10.39
2023-04-22T01:41:14.407Z,10.44
2023-04-22T01:42:14.397Z,10.43
2023-04-22T01:43:14.351Z,10.43
2023-04-22T01:44:14.340Z,10.47
2023-04-22T01:45:14.361Z,10.47
2023-04-22T01:46:13.393Z,10.44
2023-04-22T01:47:14.340Z,10.44
2023-04-22T01:48:14.315Z,10.47
2023-04-22T01:49:14.267Z,10.53
2023-04-22T01:50:14.257Z,10.53
2023-04-22T01:51:12.956Z,10.59
2023-04-22T01:52:12.794Z,10.71
2023-04-22T01:53:14.214Z,10.78
2023-04-22T01:54:12.923Z,10.77
2023-04-22T01:55:14.193Z,10.77
2023-04-22T01:56:14.192Z,10.74
2023-04-22T01:57:14.356Z,10.66
2023-04-22T01:58:14.189Z,10.70
2023-04-22T01:59:13.045Z,10.70
2023-04-22T02:00:13.084Z,10.70
2023-04-22T02:01:14.170Z,10.65
2023-04-22T02:02:12.782Z,10.62
2023-04-22T02:03:12.733Z,10.51
2023-04-22T02:04:14.071Z,10.46
2023-04-22T02:05:14.107Z,10.40
2023-04-22T02:06:14.041Z,10.36
2023-04-22T02:07:13.277Z,10.33
2023-04-22T02:08:14.031Z,10.25
2023-04-22T02:09:14.029Z,10.21
2023-04-22T02:10:14.013Z,10.21
2023-04-22T02:11:13.973Z,10.17
2023-04-22T02:12:13.959Z,10.15
2023-04-22T02:13:14.025Z,10.06
2023-04-22T02:14:13.941Z,10.04
2023-04-22T02:15:12.464Z,10.00
2023-04-22T02:16:12.476Z,9.94
2023-04-22T02:17:13.895Z,9.91
2023-04-22T02:18:13.875Z,9.79
2023-04-22T02:19:13.872Z,9.76
2023-04-22T02:20:13.894Z,9.76
2023-04-22T02:21:13.354Z,9.73
2023-04-22T02:22:13.331Z,9.71
2023-04-22T02:23:12.445Z,9.67
2023-04-22T02:24:13.793Z,9.61
2023-04-22T02:25:13.713Z,9.61
2023-04-22T02:26:13.279Z,9.58
2023-04-22T02:27:13.763Z,9.60
2023-04-22T02:28:13.751Z,9.53
2023-04-22T02:29:13.723Z,9.48
2023-04-22T02:30:13.723Z,9.46
2023-04-22T02:31:13.717Z,9.43
2023-04-22T02:32:13.666Z,9.46
2023-04-22T02:33:13.682Z,9.35
2023-04-22T02:34:13.662Z,9.35
2023-04-22T02:35:13.638Z,9.40
2023-04-22T02:36:13.628Z,9.40
2023-04-22T02:37:13.621Z,9.32
2023-04-22T02:38:13.618Z,9.31
2023-04-22T02:39:12.141Z,9.28
2023-04-22T02:40:13.581Z,9.28
2023-04-22T02:41:13.565Z,9.23
2023-04-22T02:42:13.571Z,9.20
2023-04-22T02:43:13.552Z,9.18
2023-04-22T02:44:13.544Z,9.09
2023-04-22T02:45:13.534Z,9.09
2023-04-22T02:46:13.618Z,9.05
2023-04-22T02:47:12.346Z,8.96
2023-04-22T02:48:12.101Z,8.96
2023-04-22T02:49:13.465Z,8.96
2023-04-22T02:50:13.509Z,8.97
2023-04-22T02:51:12.937Z,8.94
2023-04-22T02:52:13.414Z,8.91
2023-04-22T02:53:13.433Z,8.91
2023-04-22T02:54:13.427Z,8.90
2023-04-22T02:55:12.230Z,8.87
2023-04-22T02:56:11.915Z,8.84
2023-04-22T02:57:13.359Z,8.83
2023-04-22T02:58:12.298Z,8.79
2023-04-22T02:59:12.257Z,8.75
2023-04-22T03:00:13.366Z,8.72
2023-04-22T03:01:13.341Z,8.66
2023-04-22T03:02:13.367Z,8.63
2023-04-22T03:03:12.458Z,8.60
2023-04-22T03:04:13.364Z,8.60
2023-04-22T03:05:13.260Z,8.55
2023-04-22T03:06:12.308Z,8.55
2023-04-22T03:07:13.230Z,8.51
2023-04-22T03:08:13.223Z,8.48
2023-04-22T03:09:13.193Z,8.40
2023-04-22T03:10:13.210Z,8.37
2023-04-22T03:11:12.235Z,8.33
2023-04-22T03:12:12.248Z,8.28
2023-04-22T03:13:13.149Z,8.26
2023-04-22T03:14:13.114Z,8.25
2023-04-22T03:15:13.104Z,8.25
2023-04-22T03:16:13.111Z,8.22
2023-04-22T03:17:13.087Z,8.20
2023-04-22T03:18:13.076Z,8.15
2023-04-22T03:19:13.055Z,8.12
2023-04-22T03:20:13.062Z,8.10
2023-04-22T03:21:13.055Z,8.07
2023-04-22T03:22:13.016Z,8.04
2023-04-22T03:23:13.037Z,8.04
2023-04-22T03:24:12.993Z,8.04
2023-04-22T03:25:12.985Z,8.07
2023-04-22T03:26:12.969Z,8.03
2023-04-22T03:27:11.508Z,8.02
2023-04-22T03:28:12.939Z,7.99
2023-04-22T03:29:12.936Z,7.92
2023-04-22T03:30:12.913Z,7.90
2023-04-22T03:31:12.889Z,7.84
2023-04-22T03:32:12.900Z,7.84
2023-04-22T03:33:12.980Z,7.78
2023-04-22T03:34:12.846Z,7.74
2023-04-22T03:35:12.830Z,7.72
2023-04-22T03:36:12.820Z,7.72
2023-04-22T03:37:12.808Z,7.71
2023-04-22T03:38:12.807Z,7.71
2023-04-22T03:39:12.804Z,7.66
2023-04-22T03:40:13.751Z,7.62
2023-04-22T03:41:12.766Z,7.60
2023-04-22T03:42:12.747Z,7.58
2023-04-22T03:43:12.740Z,7.58
2023-04-22T03:44:12.722Z,7.58
2023-04-22T03:45:12.709Z,7.58
2023-04-22T03:46:12.833Z,7.58
2023-04-22T03:47:12.675Z,7.56
2023-04-22T03:48:12.676Z,7.55
2023-04-22T03:49:12.655Z,7.53
2023-04-22T03:50:12.648Z,7.53
2023-04-22T03:51:12.638Z,7.52
2023-04-22T03:52:12.616Z,7.49
2023-04-22T03:53:12.606Z,7.50
2023-04-22T03:54:12.586Z,7.53
2023-04-22T03:55:12.571Z,7.55
2023-04-22T03:56:12.566Z,7.62
2023-04-22T03:57:12.566Z,7.67
2023-04-22T03:58:12.544Z,7.74
2023-04-22T03:59:11.520Z,7.79
2023-04-22T04:00:11.063Z,7.82
2023-04-22T04:01:12.497Z,7.87
2023-04-22T04:02:11.541Z,7.87
2023-04-22T04:03:11.771Z,7.89
2023-04-22T04:04:11.836Z,7.87
2023-04-22T04:05:12.589Z,7.85
2023-04-22T04:06:12.454Z,7.84
2023-04-22T04:07:11.524Z,7.82
2023-04-22T04:08:12.401Z,7.82
2023-04-22T04:09:12.392Z,7.82
2023-04-22T04:10:12.382Z,7.78
2023-04-22T04:11:12.366Z,7.81
2023-04-22T04:12:12.347Z,7.78
2023-04-22T04:13:12.337Z,7.75
2023-04-22T04:14:12.312Z,7.67
2023-04-22T04:15:10.954Z,7.67
2023-04-22T04:16:11.026Z,7.74
2023-04-22T04:17:12.283Z,7.74
2023-04-22T04:18:12.274Z,7.74
2023-04-22T04:19:12.580Z,7.72
2023-04-22T04:20:12.260Z,7.71
2023-04-22T04:21:12.279Z,7.69
2023-04-22T04:22:12.254Z,7.63
2023-04-22T04:23:10.927Z,7.60
2023-04-22T04:24:11.208Z,7.58
2023-04-22T04:25:12.208Z,7.59
2023-04-22T04:26:12.217Z,7.60
2023-04-22T04:27:12.141Z,7.58
2023-04-22T04:28:12.144Z,7.55
2023-04-22T04:29:12.109Z,7.55
2023-04-22T04:30:12.116Z,7.52
2023-04-22T04:31:12.127Z,7.47
2023-04-22T04:32:12.083Z,7.49
2023-04-22T04:33:12.285Z,7.45
2023-04-22T04:34:12.056Z,7.42
2023-04-22T04:35:12.022Z,7.38
2023-04-22T04:36:12.028Z,7.37
2023-04-22T04:37:12.004Z,7.32
2023-04-22T04:38:11.997Z,7.35
2023-04-22T04:39:11.992Z,7.35
2023-04-22T04:40:11.977Z,7.37
2023-04-22T04:41:11.970Z,7.32
2023-04-22T04:42:11.939Z,7.32
2023-04-22T04:43:11.921Z,7.32
2023-04-22T04:44:11.917Z,7.27
2023-04-22T04:45:11.911Z,7.26
2023-04-22T04:46:11.926Z,7.26
2023-04-22T04:47:11.855Z,7.24
2023-04-22T04:48:11.922Z,7.20
2023-04-22T04:49:11.844Z,7.17
2023-04-22T04:50:11.891Z,7.15
2023-04-22T04:51:11.800Z,7.13
2023-04-22T04:52:11.792Z,7.15
2023-04-22T04:53:11.777Z,7.13
2023-04-22T04:54:11.775Z,7.15
2023-04-22T04:55:10.330Z,7.13
2023-04-22T04:56:11.740Z,7.13
2023-04-22T04:57:11.738Z,7.12
2023-04-22T04:58:11.729Z,7.08
2023-04-22T04:59:11.719Z,7.08
2023-04-22T05:00:11.690Z,7.07
2023-04-22T05:01:11.708Z,7.05
2023-04-22T05:02:11.702Z,7.01
2023-04-22T05:03:11.945Z,7.02
2023-04-22T05:04:12.040Z,7.08
2023-04-22T05:05:11.629Z,7.09
2023-04-22T05:06:11.608Z,7.13
2023-04-22T05:07:11.601Z,7.16
2023-04-22T05:08:11.584Z,7.15
2023-04-22T05:09:11.581Z,7.22
2023-04-22T05:10:11.568Z,7.27
2023-04-22T05:11:10.336Z,7.34
2023-04-22T05:12:11.538Z,7.38
2023-04-22T05:13:11.537Z,7.41
2023-04-22T05:14:11.532Z,7.45
2023-04-22T05:15:11.530Z,7.47
2023-04-22T05:16:11.548Z,7.52
2023-04-22T05:17:11.465Z,7.52
2023-04-22T05:18:11.557Z,7.56
2023-04-22T05:19:10.370Z,7.58
2023-04-22T05:20:11.450Z,7.69
2023-04-22T05:21:11.417Z,7.78
2023-04-22T05:22:11.404Z,7.85
2023-04-22T05:23:11.403Z,7.93
2023-04-22T05:24:11.383Z,8.03
2023-04-22T05:25:11.363Z,8.14
2023-04-22T05:26:11.351Z,8.20
2023-04-22T05:27:10.085Z,8.25
2023-04-22T05:28:10.377Z,8.33
2023-04-22T05:29:10.903Z,8.40
2023-04-22T05:30:11.302Z,8.44
2023-04-22T05:31:11.297Z,8.42
2023-04-22T05:32:11.301Z,8.50
2023-04-22T05:33:11.362Z,8.53
2023-04-22T05:34:09.847Z,8.57
2023-04-22T05:35:11.289Z,8.73
2023-04-22T05:36:11.212Z,8.86
2023-04-22T05:37:11.190Z,8.88
2023-04-22T05:38:11.201Z,9.01
2023-04-22T05:39:11.180Z,9.09
2023-04-22T05:40:11.167Z,9.16
2023-04-22T05:41:11.151Z,9.21
2023-04-22T05:42:11.140Z,9.27
2023-04-22T05:43:11.120Z,9.34
2023-04-22T05:44:11.137Z,9.35
2023-04-22T05:45:11.102Z,9.40
2023-04-22T05:46:11.129Z,9.40
2023-04-22T05:47:11.066Z,9.45
2023-04-22T05:48:11.129Z,9.48
2023-04-22T05:49:11.042Z,9.42
2023-04-22T05:50:11.033Z,9.40
2023-04-22T05:51:11.002Z,9.49
2023-04-22T05:52:11.005Z,9.58
2023-04-22T05:53:10.976Z,9.67
2023-04-22T05:54:10.982Z,9.60
2023-04-22T05:55:10.963Z,9.64
2023-04-22T05:56:10.947Z,9.63
2023-04-22T05:57:10.935Z,9.63
2023-04-22T05:58:10.914Z,9.66
2023-04-22T05:59:10.923Z,9.58
2023-04-22T06:00:10.902Z,9.56
2023-04-22T06:01:10.861Z,9.61
2023-04-22T06:02:11.094Z,9.58
2023-04-22T06:03:11.021Z,9.43
2023-04-22T06:04:10.971Z,9.34
2023-04-22T06:05:10.900Z,9.39
2023-04-22T06:06:10.786Z,9.31
2023-04-22T06:07:09.346Z,9.28
2023-04-22T06:08:10.777Z,9.30
2023-04-22T06:09:10.778Z,9.31
2023-04-22T06:10:10.762Z,9.32
2023-04-22T06:11:10.745Z,9.35
2023-04-22T06:12:10.730Z,9.39
2023-04-22T06:13:10.707Z,9.45
2023-04-22T06:14:10.703Z,9.50
2023-04-22T06:15:10.673Z,9.52
2023-04-22T06:16:10.695Z,9.52
2023-04-22T06:17:10.653Z,9.52
2023-04-22T06:18:10.632Z,9.52
2023-04-22T06:19:10.421Z,9.61
2023-04-22T06:20:10.622Z,9.64
2023-04-22T06:21:10.610Z,9.73
2023-04-22T06:22:09.620Z,9.85
2023-04-22T06:23:09.618Z,9.99
2023-04-22T06:24:09.615Z,10.15
2023-04-22T06:25:09.637Z,10.28
2023-04-22T06:26:10.516Z,10.56
2023-04-22T06:27:10.105Z,10.92
2023-04-22T06:28:10.507Z,11.38
2023-04-22T06:29:10.509Z,11.70
2023-04-22T06:30:10.486Z,11.94
2023-04-22T06:31:09.745Z,12.29
2023-04-22T06:32:10.458Z,12.54
2023-04-22T06:33:09.027Z,12.75
2023-04-22T06:34:10.435Z,12.95
2023-04-22T06:35:10.421Z,13.11
2023-04-22T06:36:10.392Z,13.22
2023-04-22T06:37:10.394Z,13.37
2023-04-22T06:38:10.364Z,13.52
2023-04-22T06:39:08.908Z,13.65
2023-04-22T06:40:10.346Z,13.71
2023-04-22T06:41:10.336Z,13.83
2023-04-22T06:42:10.311Z,13.91
2023-04-22T06:43:10.303Z,13.91
2023-04-22T06:44:10.306Z,13.96
2023-04-22T06:45:09.325Z,14.04
2023-04-22T06:46:09.388Z,14.04
2023-04-22T06:47:10.254Z,14.20
2023-04-22T06:48:10.229Z,14.54
2023-04-22T06:49:10.218Z,14.86
2023-04-22T06:50:10.207Z,14.86
2023-04-22T06:51:10.353Z,14.72
2023-04-22T06:52:10.185Z,14.71
2023-04-22T06:53:10.165Z,14.65
2023-04-22T06:54:11.926Z,14.60
2023-04-22T06:55:10.145Z,14.57
2023-04-22T06:56:10.208Z,14.68
2023-04-22T06:57:10.105Z,14.87
2023-04-22T06:58:08.894Z,14.86
2023-04-22T06:59:10.086Z,15.01
2023-04-22T07:00:10.098Z,15.64
2023-04-22T07:01:10.055Z,16.73
2023-04-22T07:02:10.126Z,17.22
2023-04-22T07:03:10.111Z,17.81
2023-04-22T07:04:10.039Z,18.40
2023-04-22T07:05:10.000Z,18.80
2023-04-22T07:06:09.982Z,18.80
2023-04-22T07:07:09.985Z,19.13
2023-04-22T07:08:09.965Z,19.20
2023-04-22T07:09:09.952Z,19.66
2023-04-22T07:10:09.933Z,19.65
2023-04-22T07:11:10.393Z,19.61
2023-04-22T07:12:09.912Z,19.72
2023-04-22T07:13:09.883Z,19.90
2023-04-22T07:14:09.908Z,19.98
2023-04-22T07:15:09.884Z,20.33
2023-04-22T07:16:09.887Z,20.09
2023-04-22T07:17:09.847Z,20.20
2023-04-22T07:18:09.819Z,19.58
2023-04-22T07:19:09.813Z,19.14
2023-04-22T07:20:09.806Z,19.24
2023-04-22T07:21:09.794Z,19.66
2023-04-22T07:22:09.780Z,19.78
2023-04-22T07:23:09.759Z,20.08
2023-04-22T07:24:09.746Z,20.16
2023-04-22T07:25:09.720Z,20.16
2023-04-22T07:26:09.711Z,20.59
2023-04-22T07:27:09.708Z,20.65
2023-04-22T07:28:09.695Z,20.42
2023-04-22T07:29:09.679Z,20.91
2023-04-22T07:30:09.663Z,20.51
2023-04-22T07:31:09.647Z,20.93
2023-04-22T07:32:09.748Z,21.35
2023-04-22T07:33:09.632Z,21.82
2023-04-22T07:34:09.609Z,21.23
2023-04-22T07:35:08.143Z,20.42
2023-04-22T07:36:09.592Z,20.12
2023-04-22T07:37:08.549Z,19.93
2023-04-22T07:38:10.594Z,19.80
2023-04-22T07:39:09.538Z,20.42
2023-04-22T07:40:09.536Z,20.79
2023-04-22T07:41:08.566Z,20.42
2023-04-22T07:42:09.502Z,20.54
2023-04-22T07:43:09.541Z,20.24
2023-04-22T07:44:09.458Z,20.23
2023-04-22T07:45:08.500Z,20.80
2023-04-22T07:46:08.516Z,21.42
2023-04-22T07:47:09.423Z,22.07
2023-04-22T07:48:09.415Z,22.41
2023-04-22T07:49:09.405Z,21.69
2023-04-22T07:50:08.473Z,21.75
2023-04-22T07:51:09.361Z,21.69
2023-04-22T07:52:09.353Z,21.13
2023-04-22T07:53:09.343Z,21.23
2023-04-22T07:54:09.348Z,20.76
2023-04-22T07:55:09.328Z,20.35
2023-04-22T07:56:09.304Z,20.46
2023-04-22T07:57:09.289Z,20.54
2023-04-22T07:58:07.971Z,20.46
2023-04-22T07:59:09.335Z,20.42
2023-04-22T08:00:09.262Z,20.77
2023-04-22T08:01:09.275Z,20.51
2023-04-22T08:02:09.309Z,20.27
2023-04-22T08:03:09.389Z,20.31
2023-04-22T08:04:09.418Z,20.81
2023-04-22T08:05:09.236Z,21.42
2023-04-22T08:06:09.185Z,22.35
2023-04-22T08:07:30.449Z,23.02
2023-04-22T08:08:10.146Z,23.04
2023-04-22T08:09:09.139Z,23.40
2023-04-22T08:10:09.134Z,23.40
2023-04-22T08:11:09.107Z,23.77
2023-04-22T08:12:09.086Z,24.14
2023-04-22T08:13:09.091Z,24.42
2023-04-22T08:14:09.064Z,23.90
2023-04-22T08:15:09.061Z,24.13
2023-04-22T08:16:09.072Z,23.22
2023-04-22T08:17:09.017Z,22.86
2023-04-22T08:18:09.020Z,23.19
2023-04-22T08:19:08.501Z,22.47
2023-04-22T08:20:09.005Z,22.38
2023-04-22T08:21:08.976Z,22.89
2023-04-22T08:22:08.945Z,23.60
2023-04-22T08:23:08.946Z,23.38
2023-04-22T08:24:08.934Z,23.85
2023-04-22T08:25:08.946Z,23.50
2023-04-22T08:26:08.899Z,23.43
2023-04-22T08:27:08.915Z,23.47
2023-04-22T08:28:08.890Z,22.92
2023-04-22T08:29:08.868Z,22.94
2023-04-22T08:30:08.483Z,22.14
2023-04-22T08:31:08.861Z,22.10
2023-04-22T08:32:08.828Z,22.72
2023-04-22T08:33:08.808Z,22.74
2023-04-22T08:34:08.794Z,23.24
2023-04-22T08:35:08.797Z,24.52
2023-04-22T08:36:08.791Z,24.94
2023-04-22T08:37:08.758Z,24.64
2023-04-22T08:38:08.750Z,24.50
2023-04-22T08:39:07.542Z,24.32
2023-04-22T08:40:08.733Z,23.67
2023-04-22T08:41:07.549Z,24.19
2023-04-22T08:42:07.454Z,23.89
2023-04-22T08:43:07.360Z,22.64
2023-04-22T08:44:08.672Z,21.36
2023-04-22T08:45:08.673Z,20.99
2023-04-22T08:46:07.526Z,20.53
2023-04-22T08:47:07.620Z,20.50
2023-04-22T08:48:08.634Z,20.46
2023-04-22T08:49:08.588Z,19.94
2023-04-22T08:50:08.612Z,20.03
2023-04-22T08:51:08.569Z,20.10
2023-04-22T08:52:08.566Z,19.87
2023-04-22T08:53:08.560Z,19.98
2023-04-22T08:54:07.224Z,21.08
2023-04-22T08:55:07.252Z,21.88
2023-04-22T08:56:08.508Z,22.47
2023-04-22T08:57:08.489Z,22.67
2023-04-22T08:58:08.480Z,22.72
2023-04-22T08:59:08.467Z,23.64
2023-04-22T09:00:08.503Z,23.89
2023-04-22T09:01:08.444Z,23.86
2023-04-22T09:02:08.495Z,24.32
2023-04-22T09:03:08.503Z,24.37
2023-04-22T09:04:08.508Z,24.04
2023-04-22T09:05:08.400Z,22.64
2023-04-22T09:06:08.363Z,23.34
2023-04-22T09:07:08.352Z,23.19
2023-04-22T09:08:08.358Z,22.86
2023-04-22T09:09:08.319Z,23.38
2023-04-22T09:10:08.339Z,23.32
2023-04-22T09:11:08.322Z,24.16
2023-04-22T09:12:07.848Z,23.77
2023-04-22T09:13:08.276Z,23.77
2023-04-22T09:14:08.263Z,23.17
2023-04-22T09:15:08.251Z,23.77
2023-04-22T09:16:08.259Z,23.05
2023-04-22T09:17:08.244Z,23.09
2023-04-22T09:18:08.198Z,22.56
2023-04-22T09:19:08.187Z,22.17
2023-04-22T09:20:08.202Z,22.80
2023-04-22T09:21:08.177Z,22.77
2023-04-22T09:22:08.150Z,22.52
2023-04-22T09:23:08.148Z,22.72
2023-04-22T09:24:08.144Z,23.26
2023-04-22T09:25:08.130Z,24.01
2023-04-22T09:26:06.654Z,24.64
2023-04-22T09:27:08.095Z,25.00
2023-04-22T09:28:08.088Z,24.80
2023-04-22T09:29:08.078Z,25.39
2023-04-22T09:30:08.039Z,25.47
2023-04-22T09:31:08.031Z,25.46
2023-04-22T09:32:08.199Z,25.24
2023-04-22T09:33:08.078Z,24.95
2023-04-22T09:34:07.998Z,24.23
2023-04-22T09:35:07.981Z,23.24
2023-04-22T09:36:07.980Z,24.12
2023-04-22T09:37:07.961Z,24.95
2023-04-22T09:38:07.943Z,25.62
2023-04-22T09:39:07.929Z,25.80
2023-04-22T09:40:07.923Z,26.69
2023-04-22T09:41:07.917Z,26.73
2023-04-22T09:42:07.889Z,26.55
2023-04-22T09:43:07.892Z,26.29
2023-04-22T09:44:07.866Z,26.42
2023-04-22T09:45:08.637Z,26.27
2023-04-22T09:46:08.031Z,25.16
2023-04-22T09:47:07.843Z,25.46
2023-04-22T09:48:07.827Z,26.50
2023-04-22T09:49:07.807Z,27.24
2023-04-22T09:50:07.792Z,27.06
2023-04-22T09:51:07.795Z,26.84
2023-04-22T09:52:07.765Z,25.94
2023-04-22T09:53:07.752Z,25.06
2023-04-22T09:54:07.737Z,25.07
2023-04-22T09:55:07.740Z,23.65
2023-04-22T09:56:07.729Z,23.65
2023-04-22T09:57:08.882Z,24.01
2023-04-22T09:58:06.728Z,23.65
2023-04-22T09:59:06.737Z,23.61
2023-04-22T10:00:07.677Z,23.04
2023-04-22T10:01:07.743Z,22.92
2023-04-22T10:02:07.676Z,22.71
2023-04-22T10:03:09.823Z,22.64
2023-04-22T10:04:07.673Z,22.89
2023-04-22T10:05:07.640Z,22.82
2023-04-22T10:06:09.985Z,22.31
2023-04-22T10:07:07.572Z,21.66
2023-04-22T10:08:07.584Z,21.95
2023-04-22T10:09:09.304Z,22.28
2023-04-22T10:10:07.581Z,22.17
2023-04-22T10:11:07.559Z,22.20
2023-04-22T10:12:07.508Z,22.39
2023-04-22T10:13:07.491Z,22.01
2023-04-22T10:14:07.484Z,21.78
2023-04-22T10:15:07.486Z,21.75
2023-04-22T10:16:07.460Z,21.95
2023-04-22T10:17:06.543Z,22.07
2023-04-22T10:18:07.462Z,22.17
2023-04-22T10:19:07.410Z,22.02
2023-04-22T10:20:07.398Z,21.92
2023-04-22T10:21:07.388Z,22.37
2023-04-22T10:22:07.393Z,23.39
2023-04-22T10:23:07.377Z,22.87
2023-04-22T10:24:07.338Z,22.32
2023-04-22T10:25:07.328Z,21.88
2023-04-22T10:26:07.325Z,21.64
2023-04-22T10:27:07.313Z,21.56
2023-04-22T10:28:07.302Z,21.63
2023-04-22T10:29:06.134Z,21.35
2023-04-22T10:30:07.266Z,21.38
2023-04-22T10:31:07.254Z,21.69
2023-04-22T10:32:08.472Z,21.92
2023-04-22T10:33:07.226Z,21.88
2023-04-22T10:34:07.214Z,21.64
2023-04-22T10:35:07.192Z,21.41
2023-04-22T10:36:07.191Z,21.36
2023-04-22T10:37:07.168Z,21.44
2023-04-22T10:38:07.150Z,21.46
2023-04-22T10:39:07.138Z,21.61
2023-04-22T10:40:07.128Z,21.78
2023-04-22T10:41:07.122Z,21.51
2023-04-22T10:42:07.113Z,21.44
2023-04-22T10:43:07.090Z,20.98
2023-04-22T10:44:07.096Z,21.24
2023-04-22T10:45:07.049Z,21.41
2023-04-22T10:46:07.126Z,22.77
2023-04-22T10:47:07.019Z,23.15
2023-04-22T10:48:07.035Z,23.20
2023-04-22T10:49:07.044Z,23.43
2023-04-22T10:50:06.993Z,23.19
2023-04-22T10:51:06.469Z,22.87
2023-04-22T10:52:07.205Z,22.60
2023-04-22T10:53:06.005Z,22.80
2023-04-22T10:54:05.980Z,22.12
2023-04-22T10:55:05.994Z,21.67
2023-04-22T10:56:06.902Z,21.76
2023-04-22T10:57:06.900Z,21.97
2023-04-22T10:58:06.369Z,21.38
2023-04-22T10:59:06.197Z,21.67
2023-04-22T11:00:05.918Z,21.46
2023-04-22T11:01:05.620Z,21.57
2023-04-22T11:02:06.908Z,21.36
2023-04-22T11:03:06.149Z,21.13
2023-04-22T11:04:06.865Z,21.13
2023-04-22T11:05:05.367Z,21.32
2023-04-22T11:06:06.781Z,21.46
2023-04-22T11:07:05.983Z,21.50
2023-04-22T11:08:06.758Z,21.45
2023-04-22T11:09:05.904Z,21.09
2023-04-22T11:10:06.728Z,20.83
2023-04-22T11:11:06.718Z,20.69
2023-04-22T11:12:05.393Z,20.62
2023-04-22T11:13:06.681Z,20.54
2023-04-22T11:14:06.673Z,20.50
2023-04-22T11:15:06.662Z,20.38
2023-04-22T11:16:06.669Z,20.34
2023-04-22T11:17:05.417Z,19.97
2023-04-22T11:18:06.621Z,19.55
2023-04-22T11:19:06.600Z,19.54
2023-04-22T11:20:06.157Z,19.53
2023-04-22T11:21:06.601Z,19.47
2023-04-22T11:22:06.579Z,19.15
2023-04-22T11:23:06.556Z,19.06
2023-04-22T11:24:06.544Z,19.06
2023-04-22T11:25:05.491Z,19.02
2023-04-22T11:26:06.529Z,19.02
2023-04-22T11:27:06.503Z,18.98
2023-04-22T11:28:06.490Z,18.99
2023-04-22T11:29:06.467Z,18.97
2023-04-22T11:30:06.471Z,18.99
2023-04-22T11:31:06.539Z,18.91
2023-04-22T11:32:06.447Z,18.87
2023-04-22T11:33:06.400Z,18.92
2023-04-22T11:34:06.398Z,18.91
2023-04-22T11:35:06.381Z,18.86
2023-04-22T11:36:06.359Z,18.82
2023-04-22T11:37:06.360Z,18.83
2023-04-22T11:38:06.432Z,18.77
2023-04-22T11:39:06.326Z,18.76
2023-04-22T11:41:06.326Z,18.65
2023-04-22T11:42:06.291Z,18.68
2023-04-22T11:43:06.273Z,18.73
2023-04-22T11:44:06.273Z,18.67
2023-04-22T11:45:06.250Z,18.55
2023-04-22T11:46:06.259Z,18.59
2023-04-22T11:47:06.242Z,18.58
2023-04-22T11:48:06.209Z,18.47
2023-04-22T11:49:06.184Z,18.19
2023-04-22T11:50:06.189Z,18.09
2023-04-22T11:51:06.155Z,18.17
2023-04-22T11:52:06.145Z,18.19
2023-04-22T11:53:06.139Z,18.17
2023-04-22T11:54:06.116Z,18.09
2023-04-22T11:55:06.113Z,18.13
2023-04-22T11:56:06.097Z,18.10
2023-04-22T11:57:06.084Z,18.09
2023-04-22T11:58:06.053Z,18.00
2023-04-22T11:59:06.052Z,18.07
2023-04-22T12:00:06.051Z,18.17
2023-04-22T12:01:06.038Z,18.12
2023-04-22T12:02:06.105Z,17.91
2023-04-22T12:03:06.032Z,17.66
2023-04-22T12:04:06.068Z,17.69
2023-04-22T12:05:04.627Z,17.74
2023-04-22T12:06:05.953Z,17.69
2023-04-22T12:07:05.946Z,17.71
2023-04-22T12:08:05.930Z,17.71
2023-04-22T12:09:05.906Z,17.74
2023-04-22T12:10:05.910Z,17.64
2023-04-22T12:11:05.287Z,17.57
2023-04-22T12:12:05.899Z,17.59
2023-04-22T12:13:04.771Z,17.50
2023-04-22T12:14:05.840Z,17.41
2023-04-22T12:15:05.824Z,17.36
2023-04-22T12:16:05.813Z,17.32
2023-04-22T12:17:05.924Z,17.18
2023-04-22T12:18:05.803Z,17.17
2023-04-22T12:19:04.818Z,17.17
2023-04-22T12:20:05.797Z,17.20
2023-04-22T12:21:04.295Z,17.22
2023-04-22T12:22:04.839Z,17.23
2023-04-22T12:23:05.713Z,17.36
2023-04-22T12:24:05.704Z,17.50
2023-04-22T12:25:04.758Z,17.48
2023-04-22T12:26:05.675Z,17.53
2023-04-22T12:27:05.664Z,17.43
2023-04-22T12:28:05.654Z,17.43
2023-04-22T12:29:04.788Z,17.63
2023-04-22T12:30:05.630Z,17.63
2023-04-22T12:31:05.653Z,17.59
2023-04-22T12:32:05.608Z,17.59
2023-04-22T12:33:05.585Z,17.55
2023-04-22T12:34:05.620Z,17.64
2023-04-22T12:35:05.558Z,17.74
2023-04-22T12:36:05.544Z,17.85
2023-04-22T12:37:04.733Z,17.94
2023-04-22T12:38:05.518Z,18.04
2023-04-22T12:39:05.506Z,18.19
2023-04-22T12:40:05.487Z,18.44
2023-04-22T12:41:05.472Z,18.31
2023-04-22T12:42:05.481Z,18.17
2023-04-22T12:43:05.438Z,18.09
2023-04-22T12:44:05.444Z,17.97
2023-04-22T12:45:03.974Z,17.88
2023-04-22T12:46:05.428Z,18.10
2023-04-22T12:47:05.399Z,18.27
2023-04-22T12:48:05.381Z,18.43
2023-04-22T12:49:05.365Z,18.29
2023-04-22T12:50:05.424Z,18.24
2023-04-22T12:51:05.340Z,18.40
2023-04-22T12:52:05.349Z,18.64
2023-04-22T12:53:05.300Z,18.68
2023-04-22T12:54:05.302Z,18.65
2023-04-22T12:55:05.277Z,18.55
2023-04-22T12:56:05.268Z,18.61
2023-04-22T12:57:05.259Z,18.84
2023-04-22T12:58:05.236Z,19.20
2023-04-22T12:59:05.248Z,19.18
2023-04-22T13:00:05.227Z,19.42
2023-04-22T13:01:05.198Z,19.83